Share

Hector, MN

Cosmos (KMNCOSMO3) Elev 1119 ft | 44.93 °N, 94.69 °W | Change Station

Current weather conditions updated 3 minutes ago

Clear
Clear
44.6 °F
Feels Like 35 °F
N
25.4
Wind Variable Wind from SSE
Gusts 32.0 mph
Sunrise 6:27 AM
Sunset 8:09 PM
Moon Waning Gibbous

Today is forecast to be Much Warmer than yesterday.

Pressure 29.96 in
Visibility 10.0 miles
Clouds Clear
Windchill 35 °F
Dew Point 35 °F
Humidity 69%
Rainfall 0.00 in
Snow Depth Not available.
UV 0 out of 16
Pollen 9.40 out of 12
Air Quality Not available.
Flu Activity Sporadic
METAR KOVL 191033Z AUTO 16020G32KT 10SM CLR 08/02 A2996 RMK AO2

More Conditions Fewer Conditions

Pressure 29.96 in
Visibility 10.0 miles
Clouds Clear
Windchill 35 °F
Dew Point 35 °F
Humidity 69%
Rainfall 0.00 in
Snow Depth Not available.
UV 0 out of 16
Pollen 9.40 out of 12
Air Quality Not available.
Flu Activity Sporadic
METAR KOVL 191033Z AUTO 16020G32KT 10SM CLR 08/02 A2996 RMK AO2

More Conditions Fewer Conditions

10-Day Weather Forecast

Almanac

Astronomy

Apr. 19, 2014 Rise Set
Actual Time 6:27 AM CDT 8:09 PM CDT
Civil Twilight 5:56 AM CDT 8:40 PM CDT
Nautical Twilight 5:19 AM CDT 9:17 PM CDT
Astronomical Twilight 4:38 AM CDT 9:58 PM CDT
Moon No Moon Rise 9:41 AM CDT
Length of Visible Light 14h 43m
Length of Day
13h 41m
Tomorrow will be 2m 55s longer.
Waning Gibbous, 81% of the Moon is Illuminated
Today
Waning Gibbous
Apr 22
Last Quarter
Apr 29
New
May 6
First Quarter
May 14
Full

Today's Extremes

State Highs State Lows

Community

  • Bleeding Hearts
    Bleeding Hearts
  • Sunset Silhouettes
    Sunset Silhouettes
  • FL sunset Perico Isle
    FL sunset Perico Isle
  • Cloudy spring view
    Cloudy spring view
  • Old barn
    Old barn

WunderPhotos

Upload Photos

1,702,681 photos uploaded!

WunderBlogs® & News

Nearby

Snow Depth

Station Depth Elevation
No new snow has been reported.

Coastal Water Temperatures

Place Temperature
No Stations Reporting

Earthquake Activity

City Distance Mag. Time & Date
No recent earthquake activity has been reported nearby.
Minimum magnitude displayed is 2.5.

Nearby Weather Stations

Station Location Temp. Windchill Dew Point Humidity Wind Precip. Elev Updated Type
Cosmos, Cosmos, MN 44.6 °F 35 °F 35 °F 69% SSE  at  25.4 mph 0.01 in / hr 1119 ft 7:40 AM UYT Normal
Hutchinson High School, Hutchinson, MN 45.5 °F 42 °F 36 °F 69% SE  at  7.0 mph 0.00 in / hr 1060 ft 5:40 AM CDT Normal
Renville, Renville, MN 46.6 °F 47 °F 38 °F 72% South  at  0.0 mph 0.00 in / hr 1063 ft 5:44 AM CDT Rapid Fire
Swan Shores, Hutchinson, MN 45.6 °F 36 °F 34 °F 63% SSE  at  29.0 mph 0.00 in / hr 1069 ft 5:44 AM CDT Rapid Fire
RAWS LITCHFIELD MN, Litchfield, MN 45 °F 37 °F 32 °F 60% SE  at  21 mph 0.00 in / hr 1076 ft 5:11 AM CDT MADIS

Show More Stations Show Fewer Stations

What do you think?

We're not finished. Please let us know what you like, what you don't like, and what you are still missing.